Matched Transactions 

topic0
0xddf252ad1be2c89b69c2b068fc378daa952ba7f163c4a11628f55a4df523b3ef

A total of 2,259 transactions found

Txn Hash Method
Block
From
To
Value [Txn Fee]
0x71c54db6a82804191f0cc844a4dd5ba97c39608760509452979cd439bf76ee76Add Liquidity ET...78589472021-05-30 11:56:35182 days 3 hrs ago0xb86a77d527d87c5efae61a6f4b9085c01af3a2a6 PancakeSwap: Router v21.17 BNB0.0017422
0x71c54db6a82804191f0cc844a4dd5ba97c39608760509452979cd439bf76ee76Add Liquidity ET...78589472021-05-30 11:56:35182 days 3 hrs ago0xb86a77d527d87c5efae61a6f4b9085c01af3a2a6 PancakeSwap: Router v21.17 BNB0.0017422
0xf234b3f284e7d27436e189cd3b8dd96ce94f40cbf00f69dbe05cbc3680690e7dTransfer78668412021-05-30 18:32:10181 days 20 hrs ago0xb86a77d527d87c5efae61a6f4b9085c01af3a2a6 0x14d1566e2854272f6dede8a9552bd2def60a273a0 BNB0.00255455
0xf234b3f284e7d27436e189cd3b8dd96ce94f40cbf00f69dbe05cbc3680690e7dTransfer78668412021-05-30 18:32:10181 days 20 hrs ago0xb86a77d527d87c5efae61a6f4b9085c01af3a2a6 0x14d1566e2854272f6dede8a9552bd2def60a273a0 BNB0.00255455
0x19ee1e780509e8cffbacfa6f66208571f343f1c1dc8a9b713da5c5d9b6af0094Add Liquidity ET...78683922021-05-30 19:49:43181 days 19 hrs ago0xb86a77d527d87c5efae61a6f4b9085c01af3a2a6 PancakeSwap: Router v20.36 BNB0.00289743
0x19ee1e780509e8cffbacfa6f66208571f343f1c1dc8a9b713da5c5d9b6af0094Add Liquidity ET...78683922021-05-30 19:49:43181 days 19 hrs ago0xb86a77d527d87c5efae61a6f4b9085c01af3a2a6 PancakeSwap: Router v20.36 BNB0.00289743
0x19ee1e780509e8cffbacfa6f66208571f343f1c1dc8a9b713da5c5d9b6af0094Add Liquidity ET...78683922021-05-30 19:49:43181 days 19 hrs ago0xb86a77d527d87c5efae61a6f4b9085c01af3a2a6 PancakeSwap: Router v20.36 BNB0.00289743
0x2295fb61f70206df4be76e3958b891bdfde5f1fb5101ce4b77d2dce4969eb1a5Swap Exact Token...78688462021-05-30 20:12:25181 days 19 hrs agoSpaceMoon: Deployer PancakeSwap: Router v20 BNB0.00282758
0x2295fb61f70206df4be76e3958b891bdfde5f1fb5101ce4b77d2dce4969eb1a5Swap Exact Token...78688462021-05-30 20:12:25181 days 19 hrs agoSpaceMoon: Deployer PancakeSwap: Router v20 BNB0.00282758
0xeaa332a07d0e2b95885f2018f43805dd58faef17b1a5e0425551ea4bd91fe735Transfer78880052021-05-31 12:14:50181 days 3 hrs ago0xa799b103d1171a91166288e50e1a681098c7849b 0x14d1566e2854272f6dede8a9552bd2def60a273a0 BNB0.00233615
0xeaa332a07d0e2b95885f2018f43805dd58faef17b1a5e0425551ea4bd91fe735Transfer78880052021-05-31 12:14:50181 days 3 hrs ago0xa799b103d1171a91166288e50e1a681098c7849b 0x14d1566e2854272f6dede8a9552bd2def60a273a0 BNB0.00233615
0xae4101814c93472da1a80cb8e1b2646dd92c03dd14fb9f400d4ed10b1166de45Transfer78880272021-05-31 12:15:56181 days 3 hrs ago0xa799b103d1171a91166288e50e1a681098c7849b 0x14d1566e2854272f6dede8a9552bd2def60a273a0 BNB0.00231994
0xae4101814c93472da1a80cb8e1b2646dd92c03dd14fb9f400d4ed10b1166de45Transfer78880272021-05-31 12:15:56181 days 3 hrs ago0xa799b103d1171a91166288e50e1a681098c7849b 0x14d1566e2854272f6dede8a9552bd2def60a273a0 BNB0.00231994
0x4194504fd1329d3ef863816b1c9742a671922e82696f6dd58a2b3c051c97a848Transfer78880752021-05-31 12:18:20181 days 3 hrs ago0xa799b103d1171a91166288e50e1a681098c7849b 0x14d1566e2854272f6dede8a9552bd2def60a273a0 BNB0.00237394
0x4194504fd1329d3ef863816b1c9742a671922e82696f6dd58a2b3c051c97a848Transfer78880752021-05-31 12:18:20181 days 3 hrs ago0xa799b103d1171a91166288e50e1a681098c7849b 0x14d1566e2854272f6dede8a9552bd2def60a273a0 BNB0.00237394
0x6bed3c7c4596d00a5df9506f2d51a36e846f51e8ec3a8a48a9f000c76818242fTransfer78882142021-05-31 12:25:17181 days 3 hrs ago0x6518eb74365dcdd23c09aa8f976b7fdc3d08fbf3 0x14d1566e2854272f6dede8a9552bd2def60a273a0 BNB0.00237394
0x6bed3c7c4596d00a5df9506f2d51a36e846f51e8ec3a8a48a9f000c76818242fTransfer78882142021-05-31 12:25:17181 days 3 hrs ago0x6518eb74365dcdd23c09aa8f976b7fdc3d08fbf3 0x14d1566e2854272f6dede8a9552bd2def60a273a0 BNB0.00237394
0x4de43ad4f14ccd745ee8a2dd653c9174679c21e65aa1469e01e79551d154e4c8Add Liquidity ET...78883752021-05-31 12:33:20181 days 2 hrs ago0xb86a77d527d87c5efae61a6f4b9085c01af3a2a6 PancakeSwap: Router v20.65 BNB0.00297304
0x4de43ad4f14ccd745ee8a2dd653c9174679c21e65aa1469e01e79551d154e4c8Add Liquidity ET...78883752021-05-31 12:33:20181 days 2 hrs ago0xb86a77d527d87c5efae61a6f4b9085c01af3a2a6 PancakeSwap: Router v20.65 BNB0.00297304
0x4de43ad4f14ccd745ee8a2dd653c9174679c21e65aa1469e01e79551d154e4c8Add Liquidity ET...78883752021-05-31 12:33:20181 days 2 hrs ago0xb86a77d527d87c5efae61a6f4b9085c01af3a2a6 PancakeSwap: Router v20.65 BNB0.00297304
0x803bde868b59a7ca0691a4ef4c4a4153c1022de35cbaea4f0fc692ce847ab657Swap Exact Token...78901482021-05-31 14:02:38181 days 1 hr ago0x681cb43c27d6ac681442bd49e616aac0712e9d9c PancakeSwap: Router v20 BNB0.0028274
0x803bde868b59a7ca0691a4ef4c4a4153c1022de35cbaea4f0fc692ce847ab657Swap Exact Token...78901482021-05-31 14:02:38181 days 1 hr ago0x681cb43c27d6ac681442bd49e616aac0712e9d9c PancakeSwap: Router v20 BNB0.0028274
0x2b8ed5fd0ab4d711b83192d99fc7b237254d82784f2f0e964a0468182192b349Swap Exact Token...78902022021-05-31 14:05:26181 days 1 hr ago0x681cb43c27d6ac681442bd49e616aac0712e9d9c PancakeSwap: Router v20 BNB0.0028274
0x2b8ed5fd0ab4d711b83192d99fc7b237254d82784f2f0e964a0468182192b349Swap Exact Token...78902022021-05-31 14:05:26181 days 1 hr ago0x681cb43c27d6ac681442bd49e616aac0712e9d9c PancakeSwap: Router v20 BNB0.0028274
0x2ee84dd013e6731b27f78612ec22c850dda79e315ae7442e2449e807fec9871f0x0511a50678925392021-05-31 16:02:44180 days 23 hrs ago0xb86a77d527d87c5efae61a6f4b9085c01af3a2a6 0xeb3a9c56d963b971d320f889be2fb8b59853e4490.3 BNB0.00143596
0x02087a424adbbbd006781ad12a7f1432624825c91da9e1a6bbee49659fe2c3b7Swap Exact Token...78926112021-05-31 16:06:20180 days 23 hrs ago0xc46fbcc90537652f5c53e5dac2287e611b9fc1bb PancakeSwap: Router v20 BNB0.00305497
0x02087a424adbbbd006781ad12a7f1432624825c91da9e1a6bbee49659fe2c3b7Swap Exact Token...78926112021-05-31 16:06:20180 days 23 hrs ago0xc46fbcc90537652f5c53e5dac2287e611b9fc1bb PancakeSwap: Router v20 BNB0.00305497
0x960a6d52ee3448da3bff508776eead9799a7d8bf8f28d2833ed8295df48228fdSwap Exact Token...78926452021-05-31 16:08:02180 days 23 hrs ago0xf9c5e018255ee71fb0bf583656535b713e967bc7 PancakeSwap: Router v20 BNB0.00282686
0x960a6d52ee3448da3bff508776eead9799a7d8bf8f28d2833ed8295df48228fdSwap Exact Token...78926452021-05-31 16:08:02180 days 23 hrs ago0xf9c5e018255ee71fb0bf583656535b713e967bc7 PancakeSwap: Router v20 BNB0.00282686
0xb0ccf352b7aa0e7444dfd339c780b17e6a6ad13c1250e979dc86ed39717fba8aSwap Exact Token...78927142021-05-31 16:11:29180 days 23 hrs ago0x6a06c3937b876343211f4cae2ed35439b3f0534b PancakeSwap: Router v20 BNB0.00305509
0xb0ccf352b7aa0e7444dfd339c780b17e6a6ad13c1250e979dc86ed39717fba8aSwap Exact Token...78927142021-05-31 16:11:29180 days 23 hrs ago0x6a06c3937b876343211f4cae2ed35439b3f0534b PancakeSwap: Router v20 BNB0.00305509
0x86f6ed1634d59c31537bb94819937b9e6401962217927486a68ad576e5909abeSwap Exact Token...78927222021-05-31 16:11:53180 days 23 hrs ago0x60a0cc46df6dda4ad536a81de7b0899e8b8168aa PancakeSwap: Router v20 BNB0.00282752
0x86f6ed1634d59c31537bb94819937b9e6401962217927486a68ad576e5909abeSwap Exact Token...78927222021-05-31 16:11:53180 days 23 hrs ago0x60a0cc46df6dda4ad536a81de7b0899e8b8168aa PancakeSwap: Router v20 BNB0.00282752
0xe2cecfbfb997989fd70c895b1e5e7bc4f9d3e000454603e63b4ae7676260d24dSwap Exact Token...78927222021-05-31 16:11:53180 days 23 hrs ago0x7ee364d303135c1e28ccacd596fd26b74d4bfb48 PancakeSwap: Router v20 BNB0.00276704
0xe2cecfbfb997989fd70c895b1e5e7bc4f9d3e000454603e63b4ae7676260d24dSwap Exact Token...78927222021-05-31 16:11:53180 days 23 hrs ago0x7ee364d303135c1e28ccacd596fd26b74d4bfb48 PancakeSwap: Router v20 BNB0.00276704
0x2707b0d1e6d9ca8784795f177fb6c05a648b596cc93173dd86917db0d8fc4678Swap Exact Token...78927242021-05-31 16:11:59180 days 23 hrs ago0x60a0cc46df6dda4ad536a81de7b0899e8b8168aa PancakeSwap: Router v20 BNB0.00282752
0x2707b0d1e6d9ca8784795f177fb6c05a648b596cc93173dd86917db0d8fc4678Swap Exact Token...78927242021-05-31 16:11:59180 days 23 hrs ago0x60a0cc46df6dda4ad536a81de7b0899e8b8168aa PancakeSwap: Router v20 BNB0.00282752
0xbf53ef3d2a609e5e4edb787f974cb616b71f4c68bc0724d0fd275c7b1991768dSwap Exact Token...78927262021-05-31 16:12:05180 days 23 hrs ago0x60a0cc46df6dda4ad536a81de7b0899e8b8168aa PancakeSwap: Router v20 BNB0.00282752
0xbf53ef3d2a609e5e4edb787f974cb616b71f4c68bc0724d0fd275c7b1991768dSwap Exact Token...78927262021-05-31 16:12:05180 days 23 hrs ago0x60a0cc46df6dda4ad536a81de7b0899e8b8168aa PancakeSwap: Router v20 BNB0.00282752
0x21759293e7a162c353bc246dfc7109f132e9890879a850902544952e189e8252Swap Exact Token...78927282021-05-31 16:12:11180 days 23 hrs ago0xd2e5286021b852f49a82bb2fa15abbceabf0ff6a PancakeSwap: Router v20 BNB0.00335492
0x21759293e7a162c353bc246dfc7109f132e9890879a850902544952e189e8252Swap Exact Token...78927282021-05-31 16:12:11180 days 23 hrs ago0xd2e5286021b852f49a82bb2fa15abbceabf0ff6a PancakeSwap: Router v20 BNB0.00335492
0x79230e61553adf01e549b18636f2d2306a83ac06eb98cdbe03eaa12b7605e283Swap Exact Token...78927292021-05-31 16:12:14180 days 23 hrs ago0x60a0cc46df6dda4ad536a81de7b0899e8b8168aa PancakeSwap: Router v20 BNB0.00282752
0x79230e61553adf01e549b18636f2d2306a83ac06eb98cdbe03eaa12b7605e283Swap Exact Token...78927292021-05-31 16:12:14180 days 23 hrs ago0x60a0cc46df6dda4ad536a81de7b0899e8b8168aa PancakeSwap: Router v20 BNB0.00282752
0xe9919854387c622bd50f84a9bfbe799499b36f649772c7586ae15e0d9570a5a8Swap Exact Token...78927422021-05-31 16:12:53180 days 23 hrs ago0x60a0cc46df6dda4ad536a81de7b0899e8b8168aa PancakeSwap: Router v20 BNB0.00282752
0xe9919854387c622bd50f84a9bfbe799499b36f649772c7586ae15e0d9570a5a8Swap Exact Token...78927422021-05-31 16:12:53180 days 23 hrs ago0x60a0cc46df6dda4ad536a81de7b0899e8b8168aa PancakeSwap: Router v20 BNB0.00282752
0x7e70c9b7a3f028b224c212054ddb0846a8a8dabfcff34164803c00b858707e6cSwap Exact Token...78927482021-05-31 16:13:11180 days 23 hrs ago0xc19a017d8d27fcf42bbbf68144a62473049170ef PancakeSwap: Router v20 BNB0.00305497
0x7e70c9b7a3f028b224c212054ddb0846a8a8dabfcff34164803c00b858707e6cSwap Exact Token...78927482021-05-31 16:13:11180 days 23 hrs ago0xc19a017d8d27fcf42bbbf68144a62473049170ef PancakeSwap: Router v20 BNB0.00305497
0x7e84d7b62e6bbd536a24a883c1a7ab2430beb11d2380892f24f2c2c1f2a535c7Swap Exact Token...78927572021-05-31 16:13:38180 days 23 hrs ago0x4846f999cb2235ce7922573ab63b63f873cb23f6 PancakeSwap: Router v20 BNB0.00282752
0x7e84d7b62e6bbd536a24a883c1a7ab2430beb11d2380892f24f2c2c1f2a535c7Swap Exact Token...78927572021-05-31 16:13:38180 days 23 hrs ago0x4846f999cb2235ce7922573ab63b63f873cb23f6 PancakeSwap: Router v20 BNB0.00282752
0x9b536a804195b1f18c411bb6a425e4a4c8d7960aff24ad671ce4ded62b848e72Swap Exact Token...78927702021-05-31 16:14:17180 days 23 hrs ago0xf4b9ab1d5761810de8b4ee5e586f70dd358e08c4 PancakeSwap: Router v20 BNB0.00282758
Show Records